sensor_id;sensor_type;location;lat;lon;timestamp;temperature;humidity
23681;DHT22;62915;50.832;4.462;2023-03-23T00:00:00;13.80;99.90
23681;DHT22;62915;50.832;4.462;2023-03-23T00:02:30;14.00;99.90
23681;DHT22;62915;50.832;4.462;2023-03-23T00:05:06;13.90;99.90
23681;DHT22;62915;50.832;4.462;2023-03-23T00:07:33;13.80;99.90
23681;DHT22;62915;50.832;4.462;2023-03-23T00:10:00;13.80;99.90
23681;DHT22;62915;50.832;4.462;2023-03-23T00:12:30;13.80;99.90
23681;DHT22;62915;50.832;4.462;2023-03-23T00:15:04;13.90;99.90
23681;DHT22;62915;50.832;4.462;2023-03-23T00:17:31;13.80;99.90
23681;DHT22;62915;50.832;4.462;2023-03-23T00:20:02;13.90;99.90
23681;DHT22;62915;50.832;4.462;2023-03-23T00:22:31;13.80;99.90
23681;DHT22;62915;50.832;4.462;2023-03-23T00:25:03;13.90;99.90
23681;DHT22;62915;50.832;4.462;2023-03-23T00:27:29;14.00;99.90
23681;DHT22;62915;50.832;4.462;2023-03-23T00:29:55;13.90;99.90
23681;DHT22;62915;50.832;4.462;2023-03-23T00:32:21;14.00;99.90
23681;DHT22;62915;50.832;4.462;2023-03-23T00:34:53;13.80;99.90
23681;DHT22;62915;50.832;4.462;2023-03-23T00:37:18;13.80;99.90
23681;DHT22;62915;50.832;4.462;2023-03-23T00:39:45;13.90;99.90
23681;DHT22;62915;50.832;4.462;2023-03-23T00:42:15;14.00;99.90
23681;DHT22;62915;50.832;4.462;2023-03-23T00:44:42;13.90;99.90
23681;DHT22;62915;50.832;4.462;2023-03-23T00:47:09;13.90;99.90
23681;DHT22;62915;50.832;4.462;2023-03-23T00:49:36;14.10;99.90
23681;DHT22;62915;50.832;4.462;2023-03-23T00:52:03;14.00;99.90
23681;DHT22;62915;50.832;4.462;2023-03-23T00:54:29;13.90;99.90
23681;DHT22;62915;50.832;4.462;2023-03-23T00:56:55;13.90;99.90
23681;DHT22;62915;50.832;4.462;2023-03-23T00:59:22;13.80;99.90
23681;DHT22;62915;50.832;4.462;2023-03-23T01:01:49;13.90;99.90
23681;DHT22;62915;50.832;4.462;2023-03-23T01:04:15;13.70;99.90
23681;DHT22;62915;50.832;4.462;2023-03-23T01:06:42;13.60;99.90
23681;DHT22;62915;50.832;4.462;2023-03-23T01:09:14;13.70;99.90
23681;DHT22;62915;50.832;4.462;2023-03-23T01:11:44;13.70;99.90
23681;DHT22;62915;50.832;4.462;2023-03-23T01:14:11;13.80;99.90
23681;DHT22;62915;50.832;4.462;2023-03-23T01:16:37;13.80;99.90
23681;DHT22;62915;50.832;4.462;2023-03-23T01:19:03;13.80;99.90
23681;DHT22;62915;50.832;4.462;2023-03-23T01:21:29;13.70;99.90
23681;DHT22;62915;50.832;4.462;2023-03-23T01:23:55;13.80;99.90
23681;DHT22;62915;50.832;4.462;2023-03-23T01:26:23;13.70;99.90
23681;DHT22;62915;50.832;4.462;2023-03-23T01:28:50;13.60;99.90
23681;DHT22;62915;50.832;4.462;2023-03-23T01:31:18;13.60;99.90
23681;DHT22;62915;50.832;4.462;2023-03-23T01:33:44;13.70;99.90
23681;DHT22;62915;50.832;4.462;2023-03-23T01:36:13;13.70;99.90
23681;DHT22;62915;50.832;4.462;2023-03-23T01:38:42;13.80;99.90
23681;DHT22;62915;50.832;4.462;2023-03-23T01:41:07;13.80;99.90
23681;DHT22;62915;50.832;4.462;2023-03-23T01:43:33;13.70;99.90
23681;DHT22;62915;50.832;4.462;2023-03-23T01:46:00;13.80;99.90
23681;DHT22;62915;50.832;4.462;2023-03-23T01:48:36;13.80;99.90
23681;DHT22;62915;50.832;4.462;2023-03-23T01:51:14;13.90;99.90
23681;DHT22;62915;50.832;4.462;2023-03-23T01:53:54;13.80;99.90
23681;DHT22;62915;50.832;4.462;2023-03-23T01:56:25;13.80;99.90
23681;DHT22;62915;50.832;4.462;2023-03-23T01:58:56;13.90;99.90
23681;DHT22;62915;50.832;4.462;2023-03-23T02:01:22;13.90;99.90
23681;DHT22;62915;50.832;4.462;2023-03-23T02:03:52;13.80;99.90
23681;DHT22;62915;50.832;4.462;2023-03-23T02:06:19;13.80;99.90
23681;DHT22;62915;50.832;4.462;2023-03-23T02:08:45;13.80;99.90
23681;DHT22;62915;50.832;4.462;2023-03-23T02:11:18;13.80;99.90
23681;DHT22;62915;50.832;4.462;2023-03-23T02:13:45;13.70;99.90
23681;DHT22;62915;50.832;4.462;2023-03-23T02:16:23;13.80;99.90
23681;DHT22;62915;50.832;4.462;2023-03-23T02:19:03;13.70;99.90
23681;DHT22;62915;50.832;4.462;2023-03-23T02:26:59;13.70;99.90
23681;DHT22;62915;50.832;4.462;2023-03-23T02:32:10;13.70;99.90
23681;DHT22;62915;50.832;4.462;2023-03-23T02:35:17;13.80;99.90
23681;DHT22;62915;50.832;4.462;2023-03-23T02:37:55;13.80;99.90
23681;DHT22;62915;50.832;4.462;2023-03-23T02:40:45;13.80;99.90
23681;DHT22;62915;50.832;4.462;2023-03-23T02:43:18;13.70;99.90
23681;DHT22;62915;50.832;4.462;2023-03-23T02:45:46;13.80;99.90
23681;DHT22;62915;50.832;4.462;2023-03-23T02:48:14;13.90;99.90
23681;DHT22;62915;50.832;4.462;2023-03-23T02:50:45;13.90;99.90
23681;DHT22;62915;50.832;4.462;2023-03-23T02:53:15;13.90;99.90
23681;DHT22;62915;50.832;4.462;2023-03-23T02:55:43;13.80;99.90
23681;DHT22;62915;50.832;4.462;2023-03-23T02:58:10;13.80;99.90
23681;DHT22;62915;50.832;4.462;2023-03-23T03:00:38;13.80;99.90
23681;DHT22;62915;50.832;4.462;2023-03-23T03:03:07;13.70;99.90
23681;DHT22;62915;50.832;4.462;2023-03-23T03:10:59;13.90;99.90
23681;DHT22;62915;50.832;4.462;2023-03-23T03:19:07;13.70;99.90
23681;DHT22;62915;50.832;4.462;2023-03-23T03:21:37;13.70;99.90
23681;DHT22;62915;50.832;4.462;2023-03-23T03:24:05;13.80;99.90
23681;DHT22;62915;50.832;4.462;2023-03-23T03:26:41;13.80;99.90
23681;DHT22;62915;50.832;4.462;2023-03-23T03:29:11;13.70;99.90
23681;DHT22;62915;50.832;4.462;2023-03-23T03:31:39;13.80;99.90
23681;DHT22;62915;50.832;4.462;2023-03-23T03:34:10;13.90;99.90
23681;DHT22;62915;50.832;4.462;2023-03-23T03:36:36;13.70;99.90
23681;DHT22;62915;50.832;4.462;2023-03-23T03:39:05;13.80;99.90
23681;DHT22;62915;50.832;4.462;2023-03-23T03:41:34;13.80;99.90
23681;DHT22;62915;50.832;4.462;2023-03-23T03:44:00;13.80;99.90
23681;DHT22;62915;50.832;4.462;2023-03-23T03:46:26;13.70;99.90
23681;DHT22;62915;50.832;4.462;2023-03-23T03:48:55;13.70;99.90
23681;DHT22;62915;50.832;4.462;2023-03-23T03:51:23;13.70;99.90
23681;DHT22;62915;50.832;4.462;2023-03-23T03:53:49;13.70;99.90
23681;DHT22;62915;50.832;4.462;2023-03-23T03:56:15;13.80;99.90
23681;DHT22;62915;50.832;4.462;2023-03-23T03:58:41;13.70;99.90
23681;DHT22;62915;50.832;4.462;2023-03-23T04:01:10;13.70;99.90
23681;DHT22;62915;50.832;4.462;2023-03-23T04:03:37;13.70;99.90
23681;DHT22;62915;50.832;4.462;2023-03-23T04:06:04;13.50;99.90
23681;DHT22;62915;50.832;4.462;2023-03-23T04:08:30;13.50;99.90
23681;DHT22;62915;50.832;4.462;2023-03-23T04:10:57;13.60;99.90
23681;DHT22;62915;50.832;4.462;2023-03-23T04:13:23;13.70;99.90
23681;DHT22;62915;50.832;4.462;2023-03-23T04:15:49;13.70;99.90
23681;DHT22;62915;50.832;4.462;2023-03-23T04:18:16;13.70;99.90
23681;DHT22;62915;50.832;4.462;2023-03-23T04:20:47;13.60;99.90
23681;DHT22;62915;50.832;4.462;2023-03-23T04:23:18;13.60;99.90
23681;DHT22;62915;50.832;4.462;2023-03-23T04:25:52;13.50;99.90
23681;DHT22;62915;50.832;4.462;2023-03-23T04:28:23;13.60;99.90
23681;DHT22;62915;50.832;4.462;2023-03-23T04:30:51;13.60;99.90
23681;DHT22;62915;50.832;4.462;2023-03-23T04:33:22;13.60;99.90
23681;DHT22;62915;50.832;4.462;2023-03-23T04:35:51;13.50;99.90
23681;DHT22;62915;50.832;4.462;2023-03-23T04:38:19;13.50;99.90
23681;DHT22;62915;50.832;4.462;2023-03-23T04:40:51;13.40;99.90
23681;DHT22;62915;50.832;4.462;2023-03-23T04:43:26;13.60;99.90
23681;DHT22;62915;50.832;4.462;2023-03-23T04:45:56;13.60;99.90
23681;DHT22;62915;50.832;4.462;2023-03-23T04:48:27;13.70;99.90
23681;DHT22;62915;50.832;4.462;2023-03-23T04:50:54;13.60;99.90
23681;DHT22;62915;50.832;4.462;2023-03-23T04:53:19;13.50;99.90
23681;DHT22;62915;50.832;4.462;2023-03-23T04:55:46;13.50;99.90
23681;DHT22;62915;50.832;4.462;2023-03-23T04:58:13;13.70;99.90
23681;DHT22;62915;50.832;4.462;2023-03-23T05:00:40;13.70;99.90
23681;DHT22;62915;50.832;4.462;2023-03-23T05:03:06;13.60;99.90
23681;DHT22;62915;50.832;4.462;2023-03-23T05:05:34;13.60;99.90
23681;DHT22;62915;50.832;4.462;2023-03-23T05:08:00;13.50;99.90
23681;DHT22;62915;50.832;4.462;2023-03-23T05:10:26;13.40;99.90
23681;DHT22;62915;50.832;4.462;2023-03-23T05:12:53;13.50;99.90
23681;DHT22;62915;50.832;4.462;2023-03-23T05:15:19;13.60;99.90
23681;DHT22;62915;50.832;4.462;2023-03-23T05:17:45;13.50;99.90
23681;DHT22;62915;50.832;4.462;2023-03-23T05:20:15;13.50;99.90
23681;DHT22;62915;50.832;4.462;2023-03-23T05:22:44;13.40;99.90
23681;DHT22;62915;50.832;4.462;2023-03-23T05:25:10;13.20;99.90
23681;DHT22;62915;50.832;4.462;2023-03-23T05:27:37;13.30;99.90
23681;DHT22;62915;50.832;4.462;2023-03-23T05:30:04;13.30;99.90
23681;DHT22;62915;50.832;4.462;2023-03-23T05:32:30;13.40;99.90
23681;DHT22;62915;50.832;4.462;2023-03-23T05:34:59;13.50;99.90
23681;DHT22;62915;50.832;4.462;2023-03-23T05:37:27;13.40;99.90
23681;DHT22;62915;50.832;4.462;2023-03-23T05:39:54;13.30;99.90
23681;DHT22;62915;50.832;4.462;2023-03-23T05:42:22;13.40;99.90
23681;DHT22;62915;50.832;4.462;2023-03-23T05:44:49;13.40;99.90
23681;DHT22;62915;50.832;4.462;2023-03-23T05:47:15;13.30;99.90
23681;DHT22;62915;50.832;4.462;2023-03-23T05:49:41;13.20;99.90
23681;DHT22;62915;50.832;4.462;2023-03-23T05:52:07;13.10;99.90
23681;DHT22;62915;50.832;4.462;2023-03-23T05:54:33;13.20;99.90
23681;DHT22;62915;50.832;4.462;2023-03-23T05:57:00;13.20;99.90
23681;DHT22;62915;50.832;4.462;2023-03-23T05:59:25;13.30;99.90
23681;DHT22;62915;50.832;4.462;2023-03-23T06:01:54;13.20;99.90
23681;DHT22;62915;50.832;4.462;2023-03-23T06:04:23;13.20;99.90
23681;DHT22;62915;50.832;4.462;2023-03-23T06:06:51;13.20;99.90
23681;DHT22;62915;50.832;4.462;2023-03-23T06:09:20;13.30;99.90
23681;DHT22;62915;50.832;4.462;2023-03-23T06:11:46;13.30;99.90
23681;DHT22;62915;50.832;4.462;2023-03-23T06:14:13;13.20;99.90
23681;DHT22;62915;50.832;4.462;2023-03-23T06:16:39;13.20;99.90
23681;DHT22;62915;50.832;4.462;2023-03-23T06:19:05;13.20;99.90
23681;DHT22;62915;50.832;4.462;2023-03-23T06:21:31;13.20;99.90
23681;DHT22;62915;50.832;4.462;2023-03-23T06:23:58;13.20;99.90
23681;DHT22;62915;50.832;4.462;2023-03-23T06:26:29;13.20;99.90
23681;DHT22;62915;50.832;4.462;2023-03-23T06:28:57;13.30;99.90
23681;DHT22;62915;50.832;4.462;2023-03-23T06:31:24;13.30;99.90
23681;DHT22;62915;50.832;4.462;2023-03-23T06:33:50;13.30;99.90
23681;DHT22;62915;50.832;4.462;2023-03-23T06:36:15;13.20;99.90
23681;DHT22;62915;50.832;4.462;2023-03-23T06:38:42;13.20;99.90
23681;DHT22;62915;50.832;4.462;2023-03-23T06:41:08;13.30;99.90
23681;DHT22;62915;50.832;4.462;2023-03-23T06:43:34;13.40;99.90
23681;DHT22;62915;50.832;4.462;2023-03-23T06:46:02;13.30;99.90
23681;DHT22;62915;50.832;4.462;2023-03-23T06:48:30;13.40;99.90
23681;DHT22;62915;50.832;4.462;2023-03-23T06:50:56;13.40;99.90
23681;DHT22;62915;50.832;4.462;2023-03-23T06:53:22;13.30;99.90
23681;DHT22;62915;50.832;4.462;2023-03-23T06:55:47;13.30;99.90
23681;DHT22;62915;50.832;4.462;2023-03-23T06:58:13;13.30;99.90
23681;DHT22;62915;50.832;4.462;2023-03-23T07:00:39;13.20;99.90
23681;DHT22;62915;50.832;4.462;2023-03-23T07:03:06;13.30;99.90
23681;DHT22;62915;50.832;4.462;2023-03-23T07:05:35;13.30;99.90
23681;DHT22;62915;50.832;4.462;2023-03-23T07:08:03;13.30;99.90
23681;DHT22;62915;50.832;4.462;2023-03-23T07:10:29;13.40;99.90
23681;DHT22;62915;50.832;4.462;2023-03-23T07:12:55;13.10;99.90
23681;DHT22;62915;50.832;4.462;2023-03-23T07:15:22;12.90;99.90
23681;DHT22;62915;50.832;4.462;2023-03-23T07:17:48;12.90;99.90
23681;DHT22;62915;50.832;4.462;2023-03-23T07:20:13;12.90;99.90
23681;DHT22;62915;50.832;4.462;2023-03-23T07:22:40;13.00;99.90
23681;DHT22;62915;50.832;4.462;2023-03-23T07:25:06;12.90;99.90
23681;DHT22;62915;50.832;4.462;2023-03-23T07:27:33;13.00;99.90
23681;DHT22;62915;50.832;4.462;2023-03-23T07:29:59;12.80;99.90
23681;DHT22;62915;50.832;4.462;2023-03-23T07:32:25;12.60;99.90
23681;DHT22;62915;50.832;4.462;2023-03-23T07:34:51;12.40;99.90
23681;DHT22;62915;50.832;4.462;2023-03-23T07:37:17;12.20;99.90
23681;DHT22;62915;50.832;4.462;2023-03-23T07:39:43;12.10;99.90
23681;DHT22;62915;50.832;4.462;2023-03-23T07:42:09;12.20;99.90
23681;DHT22;62915;50.832;4.462;2023-03-23T07:44:35;12.10;99.90
23681;DHT22;62915;50.832;4.462;2023-03-23T07:47:01;12.10;99.90
23681;DHT22;62915;50.832;4.462;2023-03-23T07:49:27;12.20;99.90
23681;DHT22;62915;50.832;4.462;2023-03-23T07:51:53;12.20;99.90
23681;DHT22;62915;50.832;4.462;2023-03-23T07:54:19;12.20;99.90
23681;DHT22;62915;50.832;4.462;2023-03-23T07:56:45;12.30;99.90
23681;DHT22;62915;50.832;4.462;2023-03-23T07:59:11;12.30;99.90
23681;DHT22;62915;50.832;4.462;2023-03-23T08:01:38;12.20;99.90
23681;DHT22;62915;50.832;4.462;2023-03-23T08:04:05;12.30;99.90
23681;DHT22;62915;50.832;4.462;2023-03-23T08:06:35;12.40;99.90
23681;DHT22;62915;50.832;4.462;2023-03-23T08:09:01;12.50;99.90
23681;DHT22;62915;50.832;4.462;2023-03-23T08:11:33;12.40;99.90
23681;DHT22;62915;50.832;4.462;2023-03-23T08:13:59;12.40;99.90
23681;DHT22;62915;50.832;4.462;2023-03-23T08:16:24;12.40;99.90
23681;DHT22;62915;50.832;4.462;2023-03-23T08:18:51;12.40;99.90
23681;DHT22;62915;50.832;4.462;2023-03-23T08:21:17;12.40;99.90
23681;DHT22;62915;50.832;4.462;2023-03-23T08:23:43;12.20;99.90
23681;DHT22;62915;50.832;4.462;2023-03-23T08:26:09;12.10;99.90
23681;DHT22;62915;50.832;4.462;2023-03-23T08:28:37;12.20;99.90
23681;DHT22;62915;50.832;4.462;2023-03-23T08:31:11;12.20;99.90
23681;DHT22;62915;50.832;4.462;2023-03-23T08:33:37;12.30;99.90
23681;DHT22;62915;50.832;4.462;2023-03-23T08:36:03;12.30;99.90
23681;DHT22;62915;50.832;4.462;2023-03-23T08:38:30;12.20;99.90
23681;DHT22;62915;50.832;4.462;2023-03-23T08:41:00;12.20;99.90
23681;DHT22;62915;50.832;4.462;2023-03-23T08:43:27;12.10;99.90
23681;DHT22;62915;50.832;4.462;2023-03-23T08:45:54;12.10;99.90
23681;DHT22;62915;50.832;4.462;2023-03-23T08:48:21;12.10;99.90
23681;DHT22;62915;50.832;4.462;2023-03-23T08:50:47;12.10;99.90
23681;DHT22;62915;50.832;4.462;2023-03-23T08:53:13;12.20;99.90
23681;DHT22;62915;50.832;4.462;2023-03-23T08:55:38;12.10;99.90
23681;DHT22;62915;50.832;4.462;2023-03-23T08:58:05;12.20;99.90
23681;DHT22;62915;50.832;4.462;2023-03-23T09:00:33;12.10;99.90
23681;DHT22;62915;50.832;4.462;2023-03-23T09:03:00;12.30;99.90
23681;DHT22;62915;50.832;4.462;2023-03-23T09:05:27;12.40;99.90
23681;DHT22;62915;50.832;4.462;2023-03-23T09:07:56;12.50;99.90
23681;DHT22;62915;50.832;4.462;2023-03-23T09:10:25;12.40;99.90
23681;DHT22;62915;50.832;4.462;2023-03-23T09:12:52;12.40;99.90
23681;DHT22;62915;50.832;4.462;2023-03-23T09:15:18;12.40;99.90
23681;DHT22;62915;50.832;4.462;2023-03-23T09:17:46;12.40;99.90
23681;DHT22;62915;50.832;4.462;2023-03-23T09:20:15;12.40;99.90
23681;DHT22;62915;50.832;4.462;2023-03-23T09:22:45;12.40;99.90
23681;DHT22;62915;50.832;4.462;2023-03-23T09:25:14;12.40;99.90
23681;DHT22;62915;50.832;4.462;2023-03-23T09:27:41;12.40;99.90
23681;DHT22;62915;50.832;4.462;2023-03-23T09:30:10;12.30;99.90
23681;DHT22;62915;50.832;4.462;2023-03-23T09:32:37;12.30;99.90
23681;DHT22;62915;50.832;4.462;2023-03-23T09:35:06;12.30;99.90
23681;DHT22;62915;50.832;4.462;2023-03-23T09:37:38;12.20;99.90
23681;DHT22;62915;50.832;4.462;2023-03-23T09:40:06;12.20;99.90
23681;DHT22;62915;50.832;4.462;2023-03-23T09:45:39;12.20;99.90
23681;DHT22;62915;50.832;4.462;2023-03-23T09:53:45;12.90;99.90
23681;DHT22;62915;50.832;4.462;2023-03-23T09:56:14;13.00;99.90
23681;DHT22;62915;50.832;4.462;2023-03-23T10:01:23;13.40;99.90
23681;DHT22;62915;50.832;4.462;2023-03-23T10:04:01;13.30;99.90
23681;DHT22;62915;50.832;4.462;2023-03-23T10:06:28;13.50;99.90
23681;DHT22;62915;50.832;4.462;2023-03-23T10:08:57;13.50;99.90
23681;DHT22;62915;50.832;4.462;2023-03-23T10:22:11;13.80;99.90
23681;DHT22;62915;50.832;4.462;2023-03-23T10:30:21;14.10;99.90
23681;DHT22;62915;50.832;4.462;2023-03-23T10:32:58;14.10;99.90
23681;DHT22;62915;50.832;4.462;2023-03-23T10:35:35;14.30;99.90
23681;DHT22;62915;50.832;4.462;2023-03-23T10:38:06;14.20;99.90
23681;DHT22;62915;50.832;4.462;2023-03-23T10:40:44;14.20;99.90
23681;DHT22;62915;50.832;4.462;2023-03-23T10:43:10;14.30;99.90
23681;DHT22;62915;50.832;4.462;2023-03-23T10:45:36;14.30;99.90
23681;DHT22;62915;50.832;4.462;2023-03-23T10:50:36;14.20;99.90
23681;DHT22;62915;50.832;4.462;2023-03-23T10:53:13;14.20;99.90
23681;DHT22;62915;50.832;4.462;2023-03-23T10:55:42;14.50;99.90
23681;DHT22;62915;50.832;4.462;2023-03-23T10:58:21;14.70;99.90
23681;DHT22;62915;50.832;4.462;2023-03-23T11:00:47;15.00;99.90
23681;DHT22;62915;50.832;4.462;2023-03-23T11:06:07;15.20;99.90
23681;DHT22;62915;50.832;4.462;2023-03-23T11:11:36;15.10;99.90
23681;DHT22;62915;50.832;4.462;2023-03-23T11:14:33;15.00;99.90
23681;DHT22;62915;50.832;4.462;2023-03-23T11:17:02;15.30;99.90
23681;DHT22;62915;50.832;4.462;2023-03-23T11:19:31;15.50;99.90
23681;DHT22;62915;50.832;4.462;2023-03-23T11:22:08;15.60;99.90
23681;DHT22;62915;50.832;4.462;2023-03-23T11:24:46;15.90;99.90
23681;DHT22;62915;50.832;4.462;2023-03-23T11:27:13;16.10;99.90
23681;DHT22;62915;50.832;4.462;2023-03-23T11:29:54;16.20;99.90
23681;DHT22;62915;50.832;4.462;2023-03-23T11:32:24;16.20;99.90
23681;DHT22;62915;50.832;4.462;2023-03-23T11:34:58;16.20;99.90
23681;DHT22;62915;50.832;4.462;2023-03-23T11:37:43;16.00;99.90
23681;DHT22;62915;50.832;4.462;2023-03-23T11:40:18;15.90;99.90
23681;DHT22;62915;50.832;4.462;2023-03-23T11:42:48;16.00;99.90
23681;DHT22;62915;50.832;4.462;2023-03-23T11:45:33;16.20;99.90
23681;DHT22;62915;50.832;4.462;2023-03-23T11:56:33;15.90;99.90
23681;DHT22;62915;50.832;4.462;2023-03-23T11:58:59;16.20;99.90
23681;DHT22;62915;50.832;4.462;2023-03-23T12:07:38;16.20;99.90
23681;DHT22;62915;50.832;4.462;2023-03-23T12:10:24;16.40;99.90
23681;DHT22;62915;50.832;4.462;2023-03-23T12:16:00;16.50;99.90
23681;DHT22;62915;50.832;4.462;2023-03-23T12:22:02;16.40;99.90
23681;DHT22;62915;50.832;4.462;2023-03-23T12:29:52;16.80;99.90
23681;DHT22;62915;50.832;4.462;2023-03-23T12:37:37;16.80;99.90
23681;DHT22;62915;50.832;4.462;2023-03-23T12:48:45;17.20;99.90
23681;DHT22;62915;50.832;4.462;2023-03-23T12:51:26;17.40;99.90
23681;DHT22;62915;50.832;4.462;2023-03-23T12:54:21;17.10;99.90
23681;DHT22;62915;50.832;4.462;2023-03-23T12:56:53;17.00;99.90
23681;DHT22;62915;50.832;4.462;2023-03-23T12:59:36;16.70;99.90
23681;DHT22;62915;50.832;4.462;2023-03-23T13:02:23;16.70;99.90
23681;DHT22;62915;50.832;4.462;2023-03-23T13:05:24;17.00;99.90
23681;DHT22;62915;50.832;4.462;2023-03-23T13:08:14;17.30;99.90
23681;DHT22;62915;50.832;4.462;2023-03-23T13:10:50;17.30;99.90
23681;DHT22;62915;50.832;4.462;2023-03-23T13:13:23;17.40;99.90
23681;DHT22;62915;50.832;4.462;2023-03-23T13:16:10;17.40;99.90
23681;DHT22;62915;50.832;4.462;2023-03-23T13:18:54;17.60;99.90
23681;DHT22;62915;50.832;4.462;2023-03-23T13:21:53;17.60;99.90
23681;DHT22;62915;50.832;4.462;2023-03-23T13:24:24;17.40;99.90
23681;DHT22;62915;50.832;4.462;2023-03-23T13:26:51;17.50;99.90
23681;DHT22;62915;50.832;4.462;2023-03-23T13:29:22;17.60;99.90
23681;DHT22;62915;50.832;4.462;2023-03-23T13:32:11;17.70;99.90
23681;DHT22;62915;50.832;4.462;2023-03-23T13:34:39;17.90;99.90
23681;DHT22;62915;50.832;4.462;2023-03-23T13:37:11;17.90;99.90
23681;DHT22;62915;50.832;4.462;2023-03-23T13:39:51;17.80;99.90
23681;DHT22;62915;50.832;4.462;2023-03-23T13:47:40;17.50;99.90
23681;DHT22;62915;50.832;4.462;2023-03-23T13:57:52;17.00;99.90
23681;DHT22;62915;50.832;4.462;2023-03-23T14:03:05;16.80;99.90
23681;DHT22;62915;50.832;4.462;2023-03-23T14:10:34;16.00;99.90
23681;DHT22;62915;50.832;4.462;2023-03-23T14:13:02;15.90;99.90
23681;DHT22;62915;50.832;4.462;2023-03-23T14:15:30;15.70;99.90
23681;DHT22;62915;50.832;4.462;2023-03-23T14:17:57;15.70;99.90
23681;DHT22;62915;50.832;4.462;2023-03-23T14:20:33;15.70;99.90
23681;DHT22;62915;50.832;4.462;2023-03-23T14:23:00;15.80;99.90
23681;DHT22;62915;50.832;4.462;2023-03-23T14:25:30;15.90;99.90
23681;DHT22;62915;50.832;4.462;2023-03-23T14:28:00;15.90;99.90
23681;DHT22;62915;50.832;4.462;2023-03-23T14:30:28;15.90;99.90
23681;DHT22;62915;50.832;4.462;2023-03-23T14:33:05;15.80;99.90
23681;DHT22;62915;50.832;4.462;2023-03-23T14:35:34;15.90;99.90
23681;DHT22;62915;50.832;4.462;2023-03-23T14:38:01;16.00;99.90
23681;DHT22;62915;50.832;4.462;2023-03-23T14:40:28;16.00;99.90
23681;DHT22;62915;50.832;4.462;2023-03-23T14:42:54;16.00;99.90
23681;DHT22;62915;50.832;4.462;2023-03-23T14:45:22;16.10;99.90
23681;DHT22;62915;50.832;4.462;2023-03-23T14:48:00;16.10;99.90
23681;DHT22;62915;50.832;4.462;2023-03-23T14:50:41;15.90;99.90
23681;DHT22;62915;50.832;4.462;2023-03-23T14:55:42;15.70;99.90
23681;DHT22;62915;50.832;4.462;2023-03-23T14:58:12;15.80;99.90
23681;DHT22;62915;50.832;4.462;2023-03-23T15:00:45;15.90;99.90
23681;DHT22;62915;50.832;4.462;2023-03-23T15:03:14;16.00;99.90
23681;DHT22;62915;50.832;4.462;2023-03-23T15:05:44;16.20;99.90
23681;DHT22;62915;50.832;4.462;2023-03-23T15:11:03;16.40;99.90
23681;DHT22;62915;50.832;4.462;2023-03-23T15:13:30;16.60;99.90
23681;DHT22;62915;50.832;4.462;2023-03-23T15:16:05;16.60;99.90
23681;DHT22;62915;50.832;4.462;2023-03-23T15:18:38;16.70;99.90
23681;DHT22;62915;50.832;4.462;2023-03-23T15:21:09;16.50;99.90
23681;DHT22;62915;50.832;4.462;2023-03-23T15:23:41;16.60;99.90
23681;DHT22;62915;50.832;4.462;2023-03-23T15:26:21;16.50;99.90
23681;DHT22;62915;50.832;4.462;2023-03-23T15:28:48;16.50;99.90
23681;DHT22;62915;50.832;4.462;2023-03-23T15:31:14;16.40;99.90
23681;DHT22;62915;50.832;4.462;2023-03-23T15:33:40;16.30;99.90
23681;DHT22;62915;50.832;4.462;2023-03-23T15:36:16;16.30;99.90
23681;DHT22;62915;50.832;4.462;2023-03-23T15:38:45;16.40;99.90
23681;DHT22;62915;50.832;4.462;2023-03-23T15:41:26;16.30;99.90
23681;DHT22;62915;50.832;4.462;2023-03-23T15:43:57;16.20;99.90
23681;DHT22;62915;50.832;4.462;2023-03-23T15:46:25;16.20;99.90
23681;DHT22;62915;50.832;4.462;2023-03-23T15:51:25;16.20;99.90
23681;DHT22;62915;50.832;4.462;2023-03-23T15:53:52;16.20;99.90
23681;DHT22;62915;50.832;4.462;2023-03-23T15:56:18;16.30;99.90
23681;DHT22;62915;50.832;4.462;2023-03-23T15:58:45;16.20;99.90
23681;DHT22;62915;50.832;4.462;2023-03-23T16:01:13;16.20;99.90
23681;DHT22;62915;50.832;4.462;2023-03-23T16:06:11;16.20;99.90
23681;DHT22;62915;50.832;4.462;2023-03-23T16:08:37;16.20;99.90
23681;DHT22;62915;50.832;4.462;2023-03-23T16:11:09;16.30;99.90
23681;DHT22;62915;50.832;4.462;2023-03-23T16:13:35;16.30;99.90
23681;DHT22;62915;50.832;4.462;2023-03-23T16:16:01;16.20;99.90
23681;DHT22;62915;50.832;4.462;2023-03-23T16:18:29;16.20;99.90
23681;DHT22;62915;50.832;4.462;2023-03-23T16:20:56;16.10;99.90
23681;DHT22;62915;50.832;4.462;2023-03-23T16:23:22;16.10;99.90
23681;DHT22;62915;50.832;4.462;2023-03-23T16:25:48;16.10;99.90
23681;DHT22;62915;50.832;4.462;2023-03-23T16:28:14;16.00;99.90
23681;DHT22;62915;50.832;4.462;2023-03-23T16:30:41;16.00;99.90
23681;DHT22;62915;50.832;4.462;2023-03-23T16:33:07;16.00;99.90
23681;DHT22;62915;50.832;4.462;2023-03-23T16:35:33;16.10;99.90
23681;DHT22;62915;50.832;4.462;2023-03-23T16:38:00;16.00;99.90
23681;DHT22;62915;50.832;4.462;2023-03-23T16:40:25;16.00;99.90
23681;DHT22;62915;50.832;4.462;2023-03-23T16:42:52;15.90;99.90
23681;DHT22;62915;50.832;4.462;2023-03-23T16:45:18;16.20;99.90
23681;DHT22;62915;50.832;4.462;2023-03-23T16:47:44;16.20;99.90
23681;DHT22;62915;50.832;4.462;2023-03-23T16:50:13;16.10;99.90
23681;DHT22;62915;50.832;4.462;2023-03-23T16:52:41;16.00;99.90
23681;DHT22;62915;50.832;4.462;2023-03-23T16:55:08;15.90;99.90
23681;DHT22;62915;50.832;4.462;2023-03-23T16:57:34;15.90;99.90
23681;DHT22;62915;50.832;4.462;2023-03-23T17:00:04;15.90;99.90
23681;DHT22;62915;50.832;4.462;2023-03-23T17:02:31;15.80;99.90
23681;DHT22;62915;50.832;4.462;2023-03-23T17:04:57;15.90;99.90
23681;DHT22;62915;50.832;4.462;2023-03-23T17:07:23;15.80;99.90
23681;DHT22;62915;50.832;4.462;2023-03-23T17:09:49;15.70;99.90
23681;DHT22;62915;50.832;4.462;2023-03-23T17:12:15;15.80;99.90
23681;DHT22;62915;50.832;4.462;2023-03-23T17:14:40;15.90;99.90
23681;DHT22;62915;50.832;4.462;2023-03-23T17:17:06;15.90;99.90
23681;DHT22;62915;50.832;4.462;2023-03-23T17:19:32;15.90;99.90
23681;DHT22;62915;50.832;4.462;2023-03-23T17:21:58;15.80;99.90
23681;DHT22;62915;50.832;4.462;2023-03-23T17:24:24;15.70;99.90
23681;DHT22;62915;50.832;4.462;2023-03-23T17:26:51;15.80;99.90
23681;DHT22;62915;50.832;4.462;2023-03-23T17:29:17;15.60;99.90
23681;DHT22;62915;50.832;4.462;2023-03-23T17:31:43;15.70;99.90
23681;DHT22;62915;50.832;4.462;2023-03-23T17:34:09;15.70;99.90
23681;DHT22;62915;50.832;4.462;2023-03-23T17:36:35;15.80;99.90
23681;DHT22;62915;50.832;4.462;2023-03-23T17:39:01;15.70;99.90
23681;DHT22;62915;50.832;4.462;2023-03-23T17:41:27;15.70;99.90
23681;DHT22;62915;50.832;4.462;2023-03-23T17:43:53;15.60;99.90
23681;DHT22;62915;50.832;4.462;2023-03-23T17:46:18;15.70;99.90
23681;DHT22;62915;50.832;4.462;2023-03-23T17:48:44;15.80;99.90